Time;durP1;ratioP1;P1;durP2;ratioP2;P2;SDS_P1;SDS_P2;PMS_P1;PMS_P2;Temp;Humidity;BMP_temperature;BMP_pressure;BME280_temperature;BME280_humidity;BME280_pressure;Samples;Min_cycle;Max_cycle;Signal;HPM_P1;HPM_P2
2022/06/15 00:00:57;;;;;;;5.22;2.10;;;;;;;;;;5056655;28;20085;-92
2022/06/15 00:03:31;;;;;;;4.32;2.20;;;;;;;;;;5023430;28;20074;-91
2022/06/15 00:06:23;;;;;;;4.13;2.03;;;;;;;;;;5039710;28;20052;-92
2022/06/15 00:08:55;;;;;;;5.20;2.20;;;;;;;;;;5039912;28;20059;-92
2022/06/15 00:11:29;;;;;;;4.65;2.10;;;;;;;;;;5056282;28;20094;-93
2022/06/15 00:14:06;;;;;;;3.97;2.00;;;;;;;;;;5022854;28;20128;-92
2022/06/15 00:16:34;;;;;;;3.22;1.70;;;;;;;;;;5053443;28;20506;-92
2022/06/15 00:19:02;;;;;;;3.95;1.92;;;;;;;;;;5050021;28;20127;-93
2022/06/15 00:21:31;;;;;;;3.60;2.08;;;;;;;;;;5036768;28;20485;-96
2022/06/15 00:23:59;;;;;;;3.80;2.10;;;;;;;;;;5020612;28;20166;-96
2022/06/15 00:26:51;;;;;;;4.35;2.03;;;;;;;;;;5023431;28;20501;-95
2022/06/15 00:29:30;;;;;;;5.65;1.90;;;;;;;;;;5004685;28;20060;-96
2022/06/15 00:31:57;;;;;;;5.20;2.20;;;;;;;;;;5020200;28;20055;-92
2022/06/15 00:34:25;;;;;;;2.88;1.73;;;;;;;;;;5062495;28;20087;-91
2022/06/15 00:36:53;;;;;;;3.40;1.92;;;;;;;;;;5045191;28;20136;-92
2022/06/15 00:39:21;;;;;;;5.15;2.00;;;;;;;;;;5055560;28;20128;-92
2022/06/15 00:41:49;;;;;;;3.78;1.95;;;;;;;;;;5056401;28;20079;-94
2022/06/15 00:44:17;;;;;;;3.47;1.70;;;;;;;;;;5023243;28;20050;-93
2022/06/15 00:46:49;;;;;;;3.92;1.70;;;;;;;;;;5055995;28;20068;-94
2022/06/15 00:49:23;;;;;;;5.78;2.38;;;;;;;;;;5056824;28;20102;-93
2022/06/15 00:51:56;;;;;;;5.75;1.80;;;;;;;;;;5023329;28;20059;-92
2022/06/15 00:54:24;;;;;;;3.92;2.20;;;;;;;;;;5034538;28;20077;-92
2022/06/15 00:56:53;;;;;;;5.40;2.08;;;;;;;;;;5002804;28;20060;-92
2022/06/15 01:00:12;;;;;;;4.72;2.33;;;;;;;;;;5051919;28;20174;-92
2022/06/15 01:02:41;;;;;;;4.47;2.10;;;;;;;;;;5052238;28;20060;-92
2022/06/15 01:05:12;;;;;;;4.13;2.05;;;;;;;;;;5038879;28;20127;-92
2022/06/15 01:08:07;;;;;;;5.40;2.20;;;;;;;;;;5039112;28;20185;-92
2022/06/15 01:11:26;;;;;;;4.65;2.22;;;;;;;;;;5047638;28;20071;-92
2022/06/15 01:14:48;;;;;;;5.35;1.75;;;;;;;;;;5042620;28;20036;-94
2022/06/15 01:17:38;;;;;;;4.55;2.00;;;;;;;;;;4963857;28;20288;-93
2022/06/15 01:20:26;;;;;;;5.90;2.00;;;;;;;;;;4965043;28;20058;-95
2022/06/15 01:23:30;;;;;;;3.78;1.92;;;;;;;;;;4999454;28;20095;-96
2022/06/15 01:39:52;;;;;;;3.90;1.85;;;;;;;;;;4999365;28;20056;-94
2022/06/15 01:42:27;;;;;;;3.45;2.10;;;;;;;;;;5000256;28;20124;-94
2022/06/15 01:45:14;;;;;;;4.78;2.25;;;;;;;;;;4988647;28;20042;-96
2022/06/15 01:47:46;;;;;;;5.35;2.05;;;;;;;;;;4998208;28;20053;-96
2022/06/15 01:50:29;;;;;;;6.07;1.80;;;;;;;;;;5000511;28;20054;-96
2022/06/15 01:53:57;;;;;;;4.05;2.03;;;;;;;;;;5016049;28;20129;-96
2022/06/15 01:56:35;;;;;;;3.42;1.77;;;;;;;;;;4982282;28;20050;-96
2022/06/15 01:59:32;;;;;;;4.00;1.95;;;;;;;;;;5002934;28;20050;-96
2022/06/15 02:02:12;;;;;;;4.05;1.90;;;;;;;;;;5001481;28;20054;-96
2022/06/15 02:04:47;;;;;;;6.43;2.22;;;;;;;;;;5000160;28;20448;-96
2022/06/15 02:07:38;;;;;;;4.35;1.95;;;;;;;;;;5002199;28;20061;-96
2022/06/15 02:10:26;;;;;;;4.07;1.80;;;;;;;;;;4998992;28;20050;-96
2022/06/15 02:13:19;;;;;;;5.32;1.92;;;;;;;;;;4995532;28;20466;-96
2022/06/15 02:15:53;;;;;;;3.88;1.90;;;;;;;;;;5008849;28;20494;-95
2022/06/15 02:18:27;;;;;;;3.58;1.88;;;;;;;;;;4969661;28;20061;-95
2022/06/15 02:21:01;;;;;;;4.30;1.80;;;;;;;;;;4985454;28;20418;-94
2022/06/15 02:23:33;;;;;;;4.88;2.00;;;;;;;;;;5000442;28;20486;-94
2022/06/15 02:26:04;;;;;;;5.45;2.15;;;;;;;;;;4986846;28;20518;-95
2022/06/15 02:29:02;;;;;;;4.70;2.08;;;;;;;;;;5000379;28;20073;-94
2022/06/15 02:31:42;;;;;;;6.43;2.20;;;;;;;;;;5001068;28;20053;-95
2022/06/15 02:34:09;;;;;;;5.60;2.08;;;;;;;;;;4983636;28;20462;-95
2022/06/15 02:36:45;;;;;;;3.28;1.80;;;;;;;;;;5015766;28;20077;-96
2022/06/15 02:39:52;;;;;;;3.55;2.10;;;;;;;;;;5008699;28;20030;-96
2022/06/15 02:42:44;;;;;;;3.13;1.88;;;;;;;;;;4988221;28;20030;-96
2022/06/15 02:45:59;;;;;;;4.32;2.20;;;;;;;;;;5018544;28;20053;-96
2022/06/15 04:11:59;;;;;;;;;;;;;;;;;;6163911;22;1367376;-95
2022/06/15 04:15:16;;;;;;;4.70;2.08;;;;;;;;;;6182648;23;19912;-96
2022/06/15 04:17:53;;;;;;;5.68;2.20;;;;;;;;;;6162336;23;20012;-96
2022/06/15 04:20:50;;;;;;;5.45;2.17;;;;;;;;;;6187870;23;20017;-96
2022/06/15 04:23:22;;;;;;;5.55;2.50;;;;;;;;;;6162572;23;20020;-96
2022/06/15 04:26:15;;;;;;;5.20;2.20;;;;;;;;;;6181930;23;20321;-95
2022/06/15 04:28:49;;;;;;;5.22;2.45;;;;;;;;;;6145570;23;20016;-96
2022/06/15 04:31:26;;;;;;;6.50;2.30;;;;;;;;;;6180807;23;20024;-96
2022/06/15 04:34:01;;;;;;;4.50;2.33;;;;;;;;;;6168691;23;20021;-95
2022/06/15 04:36:34;;;;;;;4.97;2.00;;;;;;;;;;6186398;23;20017;-96
2022/06/15 04:39:19;;;;;;;7.07;2.25;;;;;;;;;;6190892;23;20008;-96
2022/06/15 04:42:04;;;;;;;4.38;2.25;;;;;;;;;;6166373;23;20051;-96
2022/06/15 04:44:38;;;;;;;5.47;1.80;;;;;;;;;;6152990;23;20017;-96
2022/06/15 04:47:09;;;;;;;8.90;2.15;;;;;;;;;;6086262;23;20096;-96
2022/06/15 04:49:37;;;;;;;5.90;2.30;;;;;;;;;;6134580;23;20032;-96
2022/06/15 04:52:05;;;;;;;5.75;2.15;;;;;;;;;;6085958;23;20068;-96
2022/06/15 04:54:33;;;;;;;4.97;2.05;;;;;;;;;;6087205;23;20464;-96
2022/06/15 05:06:26;;;;;;;5.13;1.95;;;;;;;;;;6208004;23;20021;-87
2022/06/15 05:10:23;;;;;;;5.57;2.13;;;;;;;;;;6217946;23;20058;-85
2022/06/15 05:12:52;;;;;;;7.07;2.13;;;;;;;;;;6157160;23;20028;-84
2022/06/15 05:15:23;;;;;;;8.95;2.30;;;;;;;;;;6162280;23;20023;-82
2022/06/15 05:18:00;;;;;;;6.38;2.80;;;;;;;;;;6204400;23;20017;-82
2022/06/15 05:20:28;;;;;;;8.20;2.30;;;;;;;;;;6203570;23;20028;-82
2022/06/15 05:22:57;;;;;;;5.75;1.95;;;;;;;;;;6204521;23;20043;-83
2022/06/15 05:25:47;;;;;;;5.97;1.92;;;;;;;;;;6207489;23;20261;-83
2022/06/15 05:28:17;;;;;;;7.63;2.50;;;;;;;;;;6205795;23;20020;-82
2022/06/15 05:31:14;;;;;;;4.53;1.88;;;;;;;;;;6181067;23;20025;-84
2022/06/15 05:33:43;;;;;;;5.88;2.30;;;;;;;;;;6191928;23;20074;-84
2022/06/15 05:36:17;;;;;;;4.88;1.92;;;;;;;;;;6167627;23;20482;-85
2022/06/15 05:39:10;;;;;;;5.63;2.10;;;;;;;;;;6191123;23;20012;-84
2022/06/15 05:42:04;;;;;;;8.23;2.45;;;;;;;;;;6217104;23;20071;-84
2022/06/15 05:45:06;;;;;;;5.00;1.70;;;;;;;;;;6155831;23;20020;-83
2022/06/15 05:47:39;;;;;;;9.13;2.35;;;;;;;;;;6166366;23;20020;-84
2022/06/15 05:50:45;;;;;;;5.05;2.10;;;;;;;;;;6125070;23;20525;-83
2022/06/15 05:53:15;;;;;;;7.68;2.05;;;;;;;;;;6101167;23;20026;-82
2022/06/15 05:55:47;;;;;;;8.77;2.10;;;;;;;;;;6125042;23;20292;-84
2022/06/15 05:58:39;;;;;;;11.43;2.35;;;;;;;;;;6124940;23;20022;-84
2022/06/15 06:01:09;;;;;;;3.42;1.73;;;;;;;;;;6124065;23;20726;-84
2022/06/15 06:03:37;;;;;;;4.70;1.90;;;;;;;;;;6069787;23;20804;-84
2022/06/15 06:06:05;;;;;;;4.82;1.90;;;;;;;;;;6153920;23;20034;-84
2022/06/15 06:08:33;;;;;;;4.40;2.05;;;;;;;;;;6129417;23;20032;-84
2022/06/15 06:11:01;;;;;;;5.32;2.08;;;;;;;;;;6153335;23;20036;-84
2022/06/15 06:13:29;;;;;;;7.88;1.90;;;;;;;;;;6153387;23;20045;-83
2022/06/15 06:15:57;;;;;;;3.60;1.80;;;;;;;;;;6128542;23;20048;-83
2022/06/15 06:18:29;;;;;;;4.80;1.80;;;;;;;;;;6130557;23;20028;-83
2022/06/15 06:20:57;;;;;;;6.40;1.77;;;;;;;;;;6120512;23;20024;-83
2022/06/15 06:23:49;;;;;;;4.88;1.90;;;;;;;;;;6216884;23;20020;-83
2022/06/15 06:26:27;;;;;;;6.70;1.60;;;;;;;;;;6205260;23;20104;-83
2022/06/15 06:28:56;;;;;;;5.72;2.08;;;;;;;;;;6215859;23;20457;-82
2022/06/15 06:31:33;;;;;;;4.00;1.58;;;;;;;;;;6211510;23;20457;-83
2022/06/15 06:34:01;;;;;;;4.15;1.60;;;;;;;;;;6189322;23;20024;-81
2022/06/15 06:36:36;;;;;;;2.90;1.20;;;;;;;;;;6216537;23;20032;-81
2022/06/15 06:39:29;;;;;;;6.20;1.92;;;;;;;;;;6214958;23;20009;-85
2022/06/15 06:42:00;;;;;;;5.07;1.58;;;;;;;;;;6201812;23;20035;-85
2022/06/15 06:44:31;;;;;;;3.67;1.23;;;;;;;;;;6155989;23;20051;-84
2022/06/15 06:47:00;;;;;;;3.67;1.40;;;;;;;;;;6204266;23;20028;-84
2022/06/15 06:49:29;;;;;;;5.03;1.60;;;;;;;;;;6189127;23;20897;-84
2022/06/15 06:52:02;;;;;;;4.47;1.60;;;;;;;;;;6216409;23;20027;-84
2022/06/15 06:54:29;;;;;;;8.98;1.70;;;;;;;;;;6216531;23;20067;-83
2022/06/15 06:57:21;;;;;;;4.47;1.45;;;;;;;;;;6214266;23;20012;-84
2022/06/15 06:59:49;;;;;;;4.30;1.52;;;;;;;;;;6215271;23;20705;-84
2022/06/15 07:02:41;;;;;;;4.72;1.70;;;;;;;;;;6213944;23;20056;-83
2022/06/15 07:05:09;;;;;;;5.43;1.70;;;;;;;;;;6214823;23;20404;-84
2022/06/15 07:07:37;;;;;;;3.90;1.70;;;;;;;;;;6179593;23;20025;-84
2022/06/15 07:10:06;;;;;;;7.10;1.70;;;;;;;;;;6216103;23;20067;-84
2022/06/15 07:12:33;;;;;;;5.07;1.55;;;;;;;;;;6179601;23;20511;-84
2022/06/15 07:15:01;;;;;;;3.35;1.70;;;;;;;;;;6216693;23;20029;-84
2022/06/15 07:17:58;;;;;;;6.10;2.55;;;;;;;;;;6214282;23;20024;-84
2022/06/15 07:20:52;;;;;;;4.18;1.73;;;;;;;;;;6215043;23;20008;-84
2022/06/15 07:23:22;;;;;;;6.80;2.20;;;;;;;;;;6217314;23;20016;-83
2022/06/15 07:26:24;;;;;;;5.40;2.10;;;;;;;;;;6216441;23;20039;-84
2022/06/15 07:28:51;;;;;;;6.90;1.90;;;;;;;;;;6179843;23;20070;-84
2022/06/15 07:31:27;;;;;;;4.30;1.42;;;;;;;;;;6214000;23;20016;-84
2022/06/15 07:33:55;;;;;;;7.10;1.65;;;;;;;;;;6208947;23;20024;-84
2022/06/15 07:36:24;;;;;;;3.40;1.40;;;;;;;;;;6190796;23;20031;-84
2022/06/15 07:39:18;;;;;;;3.88;1.60;;;;;;;;;;6216465;23;20067;-84
2022/06/15 07:41:46;;;;;;;4.50;1.42;;;;;;;;;;6216050;23;20511;-83
2022/06/15 07:44:14;;;;;;;5.28;1.52;;;;;;;;;;6216880;23;20100;-84
2022/06/15 07:46:41;;;;;;;8.27;1.20;;;;;;;;;;6214158;23;20034;-83
2022/06/15 07:51:58;;;;;;;4.95;1.40;;;;;;;;;;6216000;23;20460;-85
2022/06/15 07:54:28;;;;;;;5.80;1.58;;;;;;;;;;6190699;23;20056;-85
2022/06/15 07:56:56;;;;;;;4.00;1.20;;;;;;;;;;6240183;23;20043;-85
2022/06/15 07:59:25;;;;;;;4.18;1.40;;;;;;;;;;6217253;23;20020;-85
2022/06/15 08:01:53;;;;;;;5.75;1.52;;;;;;;;;;6214996;23;20023;-85
2022/06/15 08:04:21;;;;;;;3.58;1.70;;;;;;;;;;6181737;23;20467;-85
2022/06/15 08:06:49;;;;;;;4.18;1.30;;;;;;;;;;6181904;23;20031;-84
2022/06/15 08:09:17;;;;;;;2.75;1.23;;;;;;;;;;6183065;23;20020;-83
2022/06/15 08:14:43;;;;;;;3.55;1.08;;;;;;;;;;6223792;23;20020;-83
2022/06/15 08:17:40;;;;;;;3.40;1.30;;;;;;;;;;6218685;23;20020;-83
2022/06/15 08:20:19;;;;;;;5.00;1.23;;;;;;;;;;6221526;23;20475;-83
2022/06/15 08:22:49;;;;;;;7.90;1.70;;;;;;;;;;6211050;23;20032;-83
2022/06/15 08:25:21;;;;;;;5.00;1.20;;;;;;;;;;6210408;23;20021;-83
2022/06/15 08:27:59;;;;;;;3.60;1.10;;;;;;;;;;6186241;23;20020;-83
2022/06/15 08:30:27;;;;;;;4.45;1.20;;;;;;;;;;6223673;23;20863;-82
2022/06/15 08:32:55;;;;;;;2.63;0.93;;;;;;;;;;6219491;23;20027;-82
2022/06/15 08:35:23;;;;;;;4.03;1.05;;;;;;;;;;6218399;23;20024;-84
2022/06/15 08:37:56;;;;;;;3.35;1.17;;;;;;;;;;6215702;23;20623;-84
2022/06/15 08:40:27;;;;;;;3.50;1.20;;;;;;;;;;6215530;23;20136;-84
2022/06/15 08:43:06;;;;;;;3.15;1.20;;;;;;;;;;6204596;23;20029;-84
2022/06/15 08:45:41;;;;;;;4.85;0.90;;;;;;;;;;6215232;23;20020;-84
2022/06/15 08:48:33;;;;;;;2.70;0.88;;;;;;;;;;6215885;23;20107;-84
2022/06/15 08:51:07;;;;;;;3.40;1.08;;;;;;;;;;6215823;23;20016;-84
2022/06/15 08:54:00;;;;;;;3.75;1.17;;;;;;;;;;6215420;23;20091;-84
2022/06/15 08:56:39;;;;;;;2.10;0.98;;;;;;;;;;6216755;23;20024;-84
2022/06/15 08:59:12;;;;;;;3.03;1.00;;;;;;;;;;6181694;23;20025;-84
2022/06/15 09:01:55;;;;;;;3.58;1.10;;;;;;;;;;6214778;23;20092;-84
2022/06/15 09:04:42;;;;;;;5.30;1.10;;;;;;;;;;6191829;23;20020;-84
2022/06/15 09:07:52;;;;;;;3.95;1.10;;;;;;;;;;6216466;23;20116;-84
2022/06/15 09:10:19;;;;;;;4.63;1.30;;;;;;;;;;6205055;23;20044;-84
2022/06/15 09:12:55;;;;;;;3.33;1.17;;;;;;;;;;6215325;23;20021;-84
2022/06/15 09:15:52;;;;;;;2.50;1.02;;;;;;;;;;6215291;23;20059;-84
2022/06/15 09:18:46;;;;;;;3.47;1.30;;;;;;;;;;6106235;23;20041;-84
2022/06/15 09:21:28;;;;;;;3.10;0.98;;;;;;;;;;6129625;23;20029;-83
2022/06/15 09:24:00;;;;;;;2.75;0.93;;;;;;;;;;6130061;23;20096;-84
2022/06/15 09:26:52;;;;;;;4.00;1.17;;;;;;;;;;6153075;23;20528;-84
2022/06/15 09:29:24;;;;;;;3.22;1.10;;;;;;;;;;6119824;23;20017;-84
2022/06/15 09:31:59;;;;;;;2.10;1.02;;;;;;;;;;6152962;23;20045;-84
2022/06/15 09:34:36;;;;;;;4.45;1.20;;;;;;;;;;6130566;23;20893;-84
2022/06/15 09:37:10;;;;;;;2.38;1.00;;;;;;;;;;6129936;23;20029;-84
2022/06/15 09:40:05;;;;;;;3.15;1.20;;;;;;;;;;6134300;23;20041;-84
2022/06/15 09:42:49;;;;;;;3.25;1.20;;;;;;;;;;6129116;23;20033;-84
2022/06/15 09:45:52;;;;;;;3.67;1.13;;;;;;;;;;6154708;23;20529;-85
2022/06/15 09:48:25;;;;;;;5.13;1.30;;;;;;;;;;6129060;23;20017;-83
2022/06/15 09:51:02;;;;;;;3.60;1.10;;;;;;;;;;6154751;23;20048;-84
2022/06/15 09:53:51;;;;;;;3.50;1.13;;;;;;;;;;6118343;23;20025;-84
2022/06/15 09:56:20;;;;;;;2.75;1.00;;;;;;;;;;6147626;23;20032;-84
2022/06/15 10:04:06;;;;;;;5.13;1.25;;;;;;;;;;6197520;23;20356;-85
2022/06/15 10:15:15;;;;;;;4.40;1.17;;;;;;;;;;5971424;24;20354;-85
2022/06/15 10:17:51;;;;;;;3.05;1.50;;;;;;;;;;5979443;24;20038;-86
2022/06/15 10:20:26;;;;;;;2.72;1.00;;;;;;;;;;5947825;24;20106;-85
2022/06/15 10:23:03;;;;;;;2.75;0.95;;;;;;;;;;5980049;24;20027;-86
2022/06/15 10:25:36;;;;;;;3.20;1.43;;;;;;;;;;5948414;24;20641;-86
2022/06/15 10:28:20;;;;;;;5.57;1.30;;;;;;;;;;5947740;24;20729;-86
2022/06/15 10:30:57;;;;;;;3.08;1.10;;;;;;;;;;5981146;24;20032;-86
2022/06/15 10:33:37;;;;;;;4.97;1.17;;;;;;;;;;5980398;24;20043;-86
2022/06/15 10:36:16;;;;;;;4.53;1.30;;;;;;;;;;5979577;24;20062;-86
2022/06/15 10:38:57;;;;;;;5.78;1.13;;;;;;;;;;5976987;24;20709;-86
2022/06/15 10:44:52;;;;;;;3.22;1.33;;;;;;;;;;6082701;23;20056;-86
2022/06/15 10:47:38;;;;;;;4.88;1.13;;;;;;;;;;6181919;23;20031;-86
2022/06/15 10:50:38;;;;;;;4.03;1.38;;;;;;;;;;6171249;23;20028;-86
2022/06/15 10:53:50;;;;;;;3.72;1.17;;;;;;;;;;6181713;23;20447;-85
2022/06/15 11:02:47;;;;;;;2.42;0.90;;;;;;;;;;6125735;23;20126;-85
2022/06/15 11:05:47;;;;;;;2.45;1.20;;;;;;;;;;6167981;23;20062;-85
2022/06/15 11:08:21;;;;;;;2.65;1.20;;;;;;;;;;6159890;23;20040;-85
2022/06/15 11:10:54;;;;;;;4.03;1.20;;;;;;;;;;6161301;23;20080;-85
2022/06/15 11:13:57;;;;;;;3.75;1.10;;;;;;;;;;6188333;23;20028;-85
2022/06/15 11:19:26;;;;;;;5.15;1.20;;;;;;;;;;6188940;23;20012;-85
2022/06/15 11:22:16;;;;;;;3.17;1.00;;;;;;;;;;6165808;23;20033;-85
2022/06/15 11:25:16;;;;;;;7.53;1.20;;;;;;;;;;6162075;23;20024;-88
2022/06/15 11:27:50;;;;;;;4.13;1.40;;;;;;;;;;6188492;23;20449;-85
2022/06/15 11:30:26;;;;;;;2.33;1.30;;;;;;;;;;6163430;23;20032;-85
2022/06/15 11:33:39;;;;;;;4.28;1.38;;;;;;;;;;6192088;23;20017;-83
2022/06/15 11:37:03;;;;;;;3.92;1.58;;;;;;;;;;6036404;23;20031;-83
2022/06/15 11:39:43;;;;;;;3.45;1.35;;;;;;;;;;6036612;23;20027;-84
2022/06/15 11:42:19;;;;;;;3.28;1.25;;;;;;;;;;6017354;23;20491;-84
2022/06/15 11:45:12;;;;;;;6.43;1.83;;;;;;;;;;6017819;23;20468;-85
2022/06/15 11:48:48;;;;;;;3.40;1.40;;;;;;;;;;6029463;23;20023;-85
2022/06/15 11:52:40;;;;;;;3.80;1.30;;;;;;;;;;6015577;23;20019;-87
2022/06/15 11:57:39;;;;;;;4.70;1.20;;;;;;;;;;5953462;24;20064;-89
2022/06/15 12:02:35;;;;;;;4.07;1.35;;;;;;;;;;5926633;24;20021;-88
2022/06/15 12:07:08;;;;;;;2.10;1.00;;;;;;;;;;5843696;24;20087;-89
2022/06/15 12:10:50;;;;;;;4.13;1.40;;;;;;;;;;5832087;24;20054;-86
2022/06/15 12:13:52;;;;;;;3.70;1.25;;;;;;;;;;5743605;24;20034;-86
2022/06/15 12:16:39;;;;;;;4.15;1.63;;;;;;;;;;5784735;24;20050;-84
2022/06/15 12:19:32;;;;;;;3.30;1.45;;;;;;;;;;5743376;24;21018;-84
2022/06/15 12:22:22;;;;;;;6.20;1.90;;;;;;;;;;5743217;24;20031;-86
2022/06/15 12:25:21;;;;;;;3.55;1.30;;;;;;;;;;5743982;24;20105;-86
2022/06/15 12:27:54;;;;;;;4.68;1.30;;;;;;;;;;5764433;24;20051;-86
2022/06/15 12:31:27;;;;;;;4.13;1.27;;;;;;;;;;5796852;24;20027;-86
2022/06/15 12:35:05;;;;;;;3.55;1.60;;;;;;;;;;5869954;24;20033;-87
2022/06/15 12:38:12;;;;;;;4.38;1.60;;;;;;;;;;5921109;24;21021;-85
2022/06/15 12:44:17;;;;;;;3.28;1.50;;;;;;;;;;5931474;24;20032;-85
2022/06/15 12:46:48;;;;;;;6.25;1.60;;;;;;;;;;5968653;23;20125;-84
2022/06/15 12:50:04;;;;;;;4.43;1.65;;;;;;;;;;6065412;23;20525;-84
2022/06/15 12:52:59;;;;;;;4.20;1.20;;;;;;;;;;6095105;23;20145;-84
2022/06/15 12:55:33;;;;;;;3.65;1.30;;;;;;;;;;6071007;23;20026;-84
2022/06/15 12:58:26;;;;;;;3.93;1.10;;;;;;;;;;6097171;23;20081;-83
2022/06/15 13:01:05;;;;;;;4.20;1.17;;;;;;;;;;6087493;23;20051;-84
2022/06/15 13:03:58;;;;;;;4.88;1.50;;;;;;;;;;6161709;23;20044;-84
2022/06/15 13:06:39;;;;;;;4.18;1.45;;;;;;;;;;6187954;23;20342;-84
2022/06/15 13:09:18;;;;;;;5.80;1.58;;;;;;;;;;6188029;23;20032;-84
2022/06/15 13:11:51;;;;;;;3.50;1.20;;;;;;;;;;6186608;23;20027;-84
2022/06/15 13:14:29;;;;;;;3.60;1.60;;;;;;;;;;6186880;23;20024;-84
2022/06/15 13:17:13;;;;;;;3.88;1.17;;;;;;;;;;6160106;23;20044;-84
2022/06/15 13:19:45;;;;;;;3.72;1.40;;;;;;;;;;6160927;23;20071;-84
2022/06/15 13:22:28;;;;;;;4.05;1.27;;;;;;;;;;6187832;23;20024;-84
2022/06/15 13:25:06;;;;;;;4.25;1.30;;;;;;;;;;6186892;23;20056;-85
2022/06/15 13:27:39;;;;;;;3.80;1.35;;;;;;;;;;6187583;23;20091;-84
2022/06/15 13:30:28;;;;;;;3.65;1.52;;;;;;;;;;6180139;23;20017;-83
2022/06/15 13:33:09;;;;;;;5.20;1.40;;;;;;;;;;6186258;23;20092;-84
2022/06/15 13:36:04;;;;;;;8.25;1.60;;;;;;;;;;6127189;23;20030;-84
2022/06/15 13:38:36;;;;;;;3.58;1.30;;;;;;;;;;6186374;23;20079;-84
2022/06/15 13:41:06;;;;;;;3.47;1.40;;;;;;;;;;6187214;23;20099;-84
2022/06/15 13:43:51;;;;;;;3.33;1.33;;;;;;;;;;6160686;23;20040;-84
2022/06/15 13:46:25;;;;;;;5.00;1.40;;;;;;;;;;6185170;23;20031;-84
2022/06/15 13:48:53;;;;;;;5.15;1.70;;;;;;;;;;6160755;23;20461;-85
2022/06/15 13:51:57;;;;;;;6.45;1.30;;;;;;;;;;6165073;23;20338;-84
2022/06/15 13:54:33;;;;;;;4.97;1.65;;;;;;;;;;6187008;23;20399;-85
2022/06/15 13:57:22;;;;;;;6.55;1.58;;;;;;;;;;6176402;23;20029;-86
2022/06/15 14:00:25;;;;;;;4.88;1.38;;;;;;;;;;6159231;23;20520;-86
2022/06/15 14:03:03;;;;;;;5.60;1.35;;;;;;;;;;6186847;23;20634;-86
2022/06/15 14:06:12;;;;;;;4.07;1.25;;;;;;;;;;6187756;23;20479;-87
2022/06/15 14:08:51;;;;;;;5.38;1.48;;;;;;;;;;6188556;23;20016;-85
2022/06/15 14:11:25;;;;;;;2.33;1.15;;;;;;;;;;6138319;23;20100;-86
2022/06/15 14:13:53;;;;;;;4.85;1.65;;;;;;;;;;6142500;23;20027;-85
2022/06/15 14:16:21;;;;;;;3.95;1.50;;;;;;;;;;6191945;23;20029;-85
2022/06/15 14:18:55;;;;;;;4.43;1.60;;;;;;;;;;6163996;23;20028;-86
2022/06/15 14:21:31;;;;;;;5.30;1.50;;;;;;;;;;6102913;23;20020;-85
2022/06/15 14:24:18;;;;;;;6.10;1.67;;;;;;;;;;6160342;23;20577;-86
2022/06/15 14:26:52;;;;;;;2.75;1.40;;;;;;;;;;6186939;23;20016;-85
2022/06/15 14:29:49;;;;;;;3.78;1.40;;;;;;;;;;6168215;23;20484;-86
2022/06/15 14:32:43;;;;;;;4.18;1.17;;;;;;;;;;6153190;23;20412;-86
2022/06/15 14:35:19;;;;;;;2.45;1.20;;;;;;;;;;6163391;23;20025;-85
2022/06/15 14:38:41;;;;;;;3.83;1.40;;;;;;;;;;6190670;23;20020;-84
2022/06/15 14:41:35;;;;;;;5.22;1.50;;;;;;;;;;6103983;23;20098;-85
2022/06/15 14:44:23;;;;;;;4.43;1.20;;;;;;;;;;6100813;23;20050;-85
2022/06/15 14:47:00;;;;;;;5.78;1.50;;;;;;;;;;6095958;23;20294;-84
2022/06/15 14:49:36;;;;;;;6.20;1.40;;;;;;;;;;6098580;23;20032;-84
2022/06/15 14:52:19;;;;;;;6.28;1.98;;;;;;;;;;6097236;23;20030;-84
2022/06/15 14:54:50;;;;;;;3.00;1.33;;;;;;;;;;6097038;23;20029;-85
2022/06/15 14:57:37;;;;;;;3.72;1.50;;;;;;;;;;6094173;23;20057;-85
2022/06/15 15:00:26;;;;;;;2.95;1.20;;;;;;;;;;6045171;23;20018;-85
2022/06/15 15:03:36;;;;;;;3.03;1.40;;;;;;;;;;6069607;23;20030;-85
2022/06/15 15:08:05;;;;;;;5.40;1.20;;;;;;;;;;6073794;23;20206;-85
2022/06/15 15:10:21;;;;;;;5.55;1.33;;;;;;;;;;6078901;23;20023;-85
2022/06/15 15:12:52;;;;;;;5.63;1.38;;;;;;;;;;6129250;23;20096;-86
2022/06/15 15:16:45;;;;;;;3.08;1.33;;;;;;;;;;6176994;23;20033;-85
2022/06/15 15:20:34;;;;;;;5.40;1.40;;;;;;;;;;6178555;23;20048;-84
2022/06/15 15:23:06;;;;;;;5.57;2.08;;;;;;;;;;6188504;23;20017;-85
2022/06/15 15:25:52;;;;;;;5.93;1.43;;;;;;;;;;6187672;23;20080;-85
2022/06/15 15:34:31;;;;;;;4.70;1.85;;;;;;;;;;6163110;23;20028;-86
2022/06/15 15:39:52;;;;;;;4.10;1.40;;;;;;;;;;6188986;23;20021;-85
2022/06/15 15:42:22;;;;;;;4.53;1.40;;;;;;;;;;6188920;23;20032;-86
2022/06/15 15:44:49;;;;;;;4.55;1.40;;;;;;;;;;6189588;23;20032;-86
2022/06/15 15:47:18;;;;;;;3.42;1.30;;;;;;;;;;6186863;23;20727;-86
2022/06/15 15:49:52;;;;;;;5.13;1.63;;;;;;;;;;6164101;23;20013;-86
2022/06/15 15:52:20;;;;;;;6.97;1.55;;;;;;;;;;6188814;23;20328;-85
2022/06/15 15:54:49;;;;;;;5.15;1.65;;;;;;;;;;6138323;23;20028;-85
2022/06/15 15:57:23;;;;;;;4.40;1.25;;;;;;;;;;6190819;23;20020;-86
2022/06/15 15:59:58;;;;;;;2.92;1.30;;;;;;;;;;6160100;23;20481;-86
2022/06/15 16:02:29;;;;;;;3.20;1.48;;;;;;;;;;6190676;23;20259;-84
2022/06/15 16:05:22;;;;;;;4.57;1.75;;;;;;;;;;6193173;23;20017;-85
2022/06/15 16:07:56;;;;;;;4.83;1.47;;;;;;;;;;6190859;23;20017;-86
2022/06/15 16:10:36;;;;;;;4.85;1.60;;;;;;;;;;6191362;23;20044;-88
2022/06/15 16:13:48;;;;;;;7.18;1.80;;;;;;;;;;6160865;23;20023;-84
2022/06/15 16:17:36;;;;;;;6.60;2.38;;;;;;;;;;6162166;23;20033;-84
2022/06/15 16:21:05;;;;;;;6.85;2.00;;;;;;;;;;6097218;23;20464;-85
2022/06/15 16:23:37;;;;;;;3.70;1.60;;;;;;;;;;6097965;23;20026;-85
2022/06/15 16:26:29;;;;;;;4.50;1.42;;;;;;;;;;6096652;23;20113;-86
2022/06/15 16:28:58;;;;;;;3.75;1.55;;;;;;;;;;6096930;23;20545;-85
2022/06/15 16:34:49;;;;;;;2.75;1.35;;;;;;;;;;6064480;23;20022;-85
2022/06/15 16:37:17;;;;;;;3.50;1.73;;;;;;;;;;6097637;23;20034;-85
2022/06/15 16:39:45;;;;;;;5.97;1.95;;;;;;;;;;6096789;23;20438;-85
2022/06/15 16:42:43;;;;;;;4.65;1.45;;;;;;;;;;6062626;23;20022;-83
2022/06/15 16:45:12;;;;;;;4.68;1.42;;;;;;;;;;6097365;23;20022;-85
2022/06/15 16:47:39;;;;;;;3.53;1.70;;;;;;;;;;6098442;23;20486;-86
2022/06/15 16:50:11;;;;;;;4.15;1.73;;;;;;;;;;6104850;23;20101;-84
2022/06/15 16:52:47;;;;;;;4.18;1.40;;;;;;;;;;6132290;23;20025;-86
2022/06/15 16:55:31;;;;;;;2.95;1.50;;;;;;;;;;6096081;23;20410;-83
2022/06/15 16:58:03;;;;;;;4.75;1.70;;;;;;;;;;6123830;23;20029;-84
2022/06/15 17:00:31;;;;;;;5.78;1.40;;;;;;;;;;6162848;23;20445;-84
2022/06/15 17:03:10;;;;;;;6.32;1.80;;;;;;;;;;6190319;23;20461;-84
2022/06/15 17:05:43;;;;;;;3.43;1.50;;;;;;;;;;6210630;23;20027;-85
2022/06/15 17:08:59;;;;;;;3.40;1.77;;;;;;;;;;6209306;23;20028;-85
2022/06/15 17:11:28;;;;;;;3.35;1.50;;;;;;;;;;6221031;23;20145;-86
2022/06/15 17:14:06;;;;;;;4.07;1.60;;;;;;;;;;6200031;23;20051;-86
2022/06/15 17:16:33;;;;;;;4.43;1.60;;;;;;;;;;6250556;23;20017;-85
2022/06/15 17:19:01;;;;;;;3.67;1.77;;;;;;;;;;6227778;23;20021;-86
2022/06/15 17:21:29;;;;;;;7.13;1.60;;;;;;;;;;6223749;23;20020;-83
2022/06/15 17:24:02;;;;;;;3.75;1.67;;;;;;;;;;6229485;23;20023;-83
2022/06/15 17:26:35;;;;;;;4.38;1.42;;;;;;;;;;6235760;23;20043;-83
2022/06/15 17:29:04;;;;;;;6.00;1.80;;;;;;;;;;6214274;23;20021;-83
2022/06/15 17:31:40;;;;;;;6.63;1.83;;;;;;;;;;6227011;23;20043;-83
2022/06/15 17:34:14;;;;;;;6.93;2.15;;;;;;;;;;6191953;23;20392;-83
2022/06/15 17:36:51;;;;;;;3.20;1.77;;;;;;;;;;6217572;23;20464;-84
2022/06/15 17:39:19;;;;;;;5.00;1.80;;;;;;;;;;6222057;23;20036;-86
2022/06/15 17:42:03;;;;;;;3.30;1.65;;;;;;;;;;6214777;23;20025;-85
2022/06/15 17:44:34;;;;;;;3.80;1.60;;;;;;;;;;6217093;23;20020;-85
2022/06/15 17:47:08;;;;;;;4.00;1.63;;;;;;;;;;6216921;23;20075;-84
2022/06/15 17:49:37;;;;;;;4.15;1.50;;;;;;;;;;6218992;23;20031;-85
2022/06/15 17:52:05;;;;;;;5.30;1.70;;;;;;;;;;6217182;23;20107;-85
2022/06/15 17:54:33;;;;;;;7.05;1.65;;;;;;;;;;6183110;23;20028;-84
2022/06/15 17:57:02;;;;;;;5.63;2.10;;;;;;;;;;6217091;23;20027;-84
2022/06/15 17:59:55;;;;;;;4.95;1.85;;;;;;;;;;6218061;23;20024;-83
2022/06/15 18:02:23;;;;;;;5.13;1.90;;;;;;;;;;6211139;23;20468;-85
2022/06/15 18:04:51;;;;;;;4.38;1.95;;;;;;;;;;6216594;23;20020;-83
2022/06/15 18:07:43;;;;;;;4.18;2.20;;;;;;;;;;6199935;23;20024;-83
2022/06/15 18:10:13;;;;;;;4.38;1.80;;;;;;;;;;6211186;23;20070;-83
2022/06/15 18:12:42;;;;;;;4.05;1.80;;;;;;;;;;6217290;23;20024;-83
2022/06/15 18:15:12;;;;;;;4.10;1.98;;;;;;;;;;6215712;23;20083;-83
2022/06/15 18:17:47;;;;;;;4.07;1.73;;;;;;;;;;6215951;23;20024;-83
2022/06/15 18:20:19;;;;;;;4.57;2.08;;;;;;;;;;6217835;23;20044;-83
2022/06/15 18:22:48;;;;;;;4.57;2.00;;;;;;;;;;6215184;23;20793;-83
2022/06/15 18:25:17;;;;;;;3.88;1.70;;;;;;;;;;6216987;23;20096;-83
2022/06/15 18:27:45;;;;;;;10.57;3.67;;;;;;;;;;6215380;23;20020;-83
2022/06/15 18:30:16;;;;;;;2.63;1.65;;;;;;;;;;6211339;23;20013;-82
2022/06/15 18:32:47;;;;;;;4.43;2.30;;;;;;;;;;6215639;23;20026;-83
2022/06/15 18:35:19;;;;;;;5.28;1.75;;;;;;;;;;6216055;23;20024;-83
2022/06/15 18:37:52;;;;;;;2.40;1.58;;;;;;;;;;6215714;23;20024;-83
2022/06/15 18:40:25;;;;;;;3.78;1.65;;;;;;;;;;6217586;23;20016;-85
2022/06/15 18:42:53;;;;;;;6.13;2.10;;;;;;;;;;6181507;23;20104;-85
2022/06/15 18:48:39;;;;;;;3.05;1.73;;;;;;;;;;6217805;23;20044;-85
2022/06/15 18:51:08;;;;;;;7.03;2.45;;;;;;;;;;6181904;23;20017;-85